Time;durP1;ratioP1;P1;durP2;ratioP2;P2;SDS_P1;SDS_P2;PMS_P1;PMS_P2;Temp;Humidity;BMP_temperature;BMP_pressure;BME280_temperature;BME280_humidity;BME280_pressure;Samples;Min_cycle;Max_cycle;Signal;HPM_P1;HPM_P2
2023/06/16 00:00:38;;;;;;;;;;;19.30;77.20;;;;;;5127906;27;19927;-75
2023/06/16 00:03:05;;;;;;;;;;;19.30;77.60;;;;;;5126352;27;19976;-74
2023/06/16 00:05:30;;;;;;;;;;;19.20;77.60;;;;;;5127544;27;19958;-74
2023/06/16 00:08:00;;;;;;;;;;;19.10;77.80;;;;;;5126619;27;19965;-75
2023/06/16 00:10:26;;;;;;;;;;;19.10;78.00;;;;;;5126271;27;20491;-74
2023/06/16 00:12:52;;;;;;;;;;;19.10;78.20;;;;;;5125501;27;19927;-75
2023/06/16 00:15:17;;;;;;;;;;;19.10;78.30;;;;;;5116097;27;19919;-75
2023/06/16 00:17:46;;;;;;;;;;;19.10;78.20;;;;;;5121529;27;19919;-75
2023/06/16 00:20:12;;;;;;;;;;;19.00;78.50;;;;;;5121316;27;20290;-74
2023/06/16 00:22:39;;;;;;;;;;;19.00;78.80;;;;;;5124569;27;19920;-74
2023/06/16 00:25:04;;;;;;;;;;;18.90;79.00;;;;;;5124347;27;19919;-74
2023/06/16 00:27:30;;;;;;;;;;;18.80;79.00;;;;;;5125853;27;19976;-74
2023/06/16 00:29:55;;;;;;;;;;;18.80;79.30;;;;;;5124476;27;19923;-74
2023/06/16 00:32:21;;;;;;;;;;;18.70;79.50;;;;;;5126390;27;19987;-75
2023/06/16 00:34:46;;;;;;;;;;;18.70;79.60;;;;;;5115559;27;19923;-74
2023/06/16 00:37:12;;;;;;;;;;;18.60;79.60;;;;;;5110003;27;19926;-75
2023/06/16 00:39:37;;;;;;;;;;;18.60;79.70;;;;;;5127724;27;19923;-74
2023/06/16 00:42:03;;;;;;;;;;;18.60;79.90;;;;;;5127844;27;20011;-74
2023/06/16 00:44:29;;;;;;;;;;;18.50;80.20;;;;;;5117790;27;19920;-75
2023/06/16 00:46:54;;;;;;;;;;;18.40;80.20;;;;;;5109992;27;19964;-74
2023/06/16 00:49:20;;;;;;;;;;;18.40;80.50;;;;;;5128628;27;19927;-75
2023/06/16 00:51:46;;;;;;;;;;;18.40;80.90;;;;;;5123024;27;20408;-75
2023/06/16 00:54:15;;;;;;;;;;;18.30;81.10;;;;;;5122798;27;19920;-75
2023/06/16 00:56:41;;;;;;;;;;;18.20;81.30;;;;;;5125677;27;19919;-74
2023/06/16 00:59:07;;;;;;;;;;;18.20;81.50;;;;;;5126023;27;19942;-74
2023/06/16 01:01:34;;;;;;;;;;;18.10;81.80;;;;;;5127025;27;19966;-74
2023/06/16 01:04:00;;;;;;;;;;;18.10;82.10;;;;;;5126484;27;20408;-75
2023/06/16 01:06:43;;;;;;;;;;;18.00;82.50;;;;;;5126229;27;20023;-74
2023/06/16 01:09:21;;;;;;;;;;;18.00;82.90;;;;;;5122682;27;19923;-75
2023/06/16 01:11:58;;;;;;;;;;;17.90;83.00;;;;;;5119679;27;19919;-75
2023/06/16 01:14:32;;;;;;;;;;;17.90;83.50;;;;;;5118803;27;20374;-74
2023/06/16 01:16:57;;;;;;;;;;;17.80;83.80;;;;;;5123853;27;19975;-74
2023/06/16 01:19:37;;;;;;;;;;;17.80;84.00;;;;;;5122732;27;19923;-74
2023/06/16 01:22:17;;;;;;;;;;;17.70;84.40;;;;;;5122877;27;20076;-74
2023/06/16 01:24:45;;;;;;;;;;;17.70;84.80;;;;;;5118401;27;20406;-74
2023/06/16 01:27:13;;;;;;;;;;;17.60;85.00;;;;;;5120866;27;20357;-74
2023/06/16 01:29:39;;;;;;;;;;;17.60;85.30;;;;;;5125627;27;19919;-74
2023/06/16 01:32:05;;;;;;;;;;;17.50;85.60;;;;;;5121667;27;20806;-74
2023/06/16 01:34:33;;;;;;;;;;;17.50;85.90;;;;;;5118616;27;20014;-74
2023/06/16 01:36:59;;;;;;;;;;;17.40;86.20;;;;;;5126053;27;20442;-75
2023/06/16 01:39:25;;;;;;;;;;;17.40;86.70;;;;;;5111146;27;19919;-74
2023/06/16 01:41:52;;;;;;;;;;;17.40;86.90;;;;;;5109526;28;19927;-74
2023/06/16 01:44:18;;;;;;;;;;;17.30;87.20;;;;;;5093989;28;19923;-74
2023/06/16 01:46:43;;;;;;;;;;;17.30;87.60;;;;;;5125602;27;20429;-74
2023/06/16 01:49:09;;;;;;;;;;;17.30;87.90;;;;;;5114828;27;20299;-74
2023/06/16 01:51:36;;;;;;;;;;;17.20;88.20;;;;;;5127421;27;19926;-74
2023/06/16 01:54:01;;;;;;;;;;;17.20;88.40;;;;;;5125006;27;19923;-74
2023/06/16 01:56:28;;;;;;;;;;;17.20;89.00;;;;;;5120697;27;19930;-74
2023/06/16 01:58:54;;;;;;;;;;;17.20;89.40;;;;;;5121343;27;20387;-74
2023/06/16 02:01:29;;;;;;;;;;;17.10;89.60;;;;;;5127130;27;19926;-74
2023/06/16 02:04:08;;;;;;;;;;;17.10;89.90;;;;;;5124054;27;19926;-74
2023/06/16 02:06:37;;;;;;;;;;;17.10;90.20;;;;;;5110020;27;19942;-74
2023/06/16 02:09:04;;;;;;;;;;;17.00;90.30;;;;;;5125496;27;19920;-74
2023/06/16 02:11:30;;;;;;;;;;;17.00;90.50;;;;;;5128625;27;20724;-75
2023/06/16 02:13:55;;;;;;;;;;;16.90;90.70;;;;;;5117053;27;19930;-74
2023/06/16 02:16:21;;;;;;;;;;;16.90;90.70;;;;;;5123499;27;20003;-74
2023/06/16 02:18:49;;;;;;;;;;;16.80;90.90;;;;;;5127918;27;20009;-74
2023/06/16 02:21:15;;;;;;;;;;;16.80;91.10;;;;;;5124536;27;19920;-74
2023/06/16 02:23:40;;;;;;;;;;;16.80;91.40;;;;;;5119616;27;19920;-74
2023/06/16 02:26:06;;;;;;;;;;;16.80;91.60;;;;;;5121993;27;19975;-74
2023/06/16 02:28:31;;;;;;;;;;;16.80;91.90;;;;;;5126981;27;19931;-74
2023/06/16 02:30:57;;;;;;;;;;;16.80;92.00;;;;;;5123963;27;19919;-75
2023/06/16 02:33:22;;;;;;;;;;;16.80;92.30;;;;;;5127758;27;19919;-74
2023/06/16 02:35:48;;;;;;;;;;;16.80;92.50;;;;;;5123425;27;19926;-74
2023/06/16 02:38:13;;;;;;;;;;;16.80;92.70;;;;;;5126489;27;19973;-74
2023/06/16 02:40:39;;;;;;;;;;;16.80;93.00;;;;;;5104991;28;19923;-74
2023/06/16 02:43:04;;;;;;;;;;;16.80;93.20;;;;;;5125619;27;20608;-74
2023/06/16 02:45:30;;;;;;;;;;;16.90;93.50;;;;;;5122039;27;20369;-74
2023/06/16 02:47:55;;;;;;;;;;;16.90;93.60;;;;;;5093671;28;19924;-74
2023/06/16 02:50:22;;;;;;;;;;;16.90;93.90;;;;;;5117548;27;19924;-74
2023/06/16 02:52:48;;;;;;;;;;;17.00;94.10;;;;;;5126923;27;19927;-74
2023/06/16 02:55:14;;;;;;;;;;;17.00;94.30;;;;;;5124207;28;20556;-74
2023/06/16 02:57:39;;;;;;;;;;;17.00;94.50;;;;;;5127431;28;19971;-73
2023/06/16 03:00:09;;;;;;;;;;;17.00;94.60;;;;;;5123808;28;20386;-74
2023/06/16 03:02:35;;;;;;;;;;;17.00;94.80;;;;;;5126630;27;19926;-75
2023/06/16 03:05:01;;;;;;;;;;;17.00;95.00;;;;;;5125249;27;19923;-74
2023/06/16 03:07:31;;;;;;;;;;;17.00;95.10;;;;;;5127586;27;19948;-74
2023/06/16 03:09:57;;;;;;;;;;;17.00;95.30;;;;;;5105678;28;19924;-74
2023/06/16 03:12:22;;;;;;;;;;;17.00;95.50;;;;;;5125796;28;19941;-74
2023/06/16 03:14:48;;;;;;;;;;;17.00;95.60;;;;;;5119707;28;20437;-74
2023/06/16 03:17:13;;;;;;;;;;;17.00;95.70;;;;;;5125532;28;19942;-74
2023/06/16 03:19:40;;;;;;;;;;;16.90;95.80;;;;;;5122741;28;19920;-74
2023/06/16 03:22:05;;;;;;;;;;;16.90;96.00;;;;;;5125965;28;19992;-74
2023/06/16 03:24:33;;;;;;;;;;;16.90;96.20;;;;;;5120017;28;20012;-74
2023/06/16 03:26:58;;;;;;;;;;;16.90;96.40;;;;;;5116313;28;20543;-74
2023/06/16 03:29:24;;;;;;;;;;;16.80;96.60;;;;;;5122200;27;19968;-74
2023/06/16 03:31:49;;;;;;;;;;;16.80;96.90;;;;;;5126594;27;19919;-74
2023/06/16 03:34:15;;;;;;;;;;;16.80;97.00;;;;;;5121134;28;20383;-74
2023/06/16 03:36:40;;;;;;;;;;;16.80;97.10;;;;;;5125344;28;19977;-74
2023/06/16 03:39:06;;;;;;;;;;;16.80;97.30;;;;;;5119696;28;19979;-74
2023/06/16 03:41:32;;;;;;;;;;;16.80;97.40;;;;;;5123460;28;19923;-74
2023/06/16 03:43:58;;;;;;;;;;;16.70;97.50;;;;;;5119309;27;20320;-74
2023/06/16 03:46:23;;;;;;;;;;;16.80;97.70;;;;;;5125041;27;20382;-74
2023/06/16 03:48:49;;;;;;;;;;;16.70;97.80;;;;;;5110060;27;19927;-74
2023/06/16 03:51:15;;;;;;;;;;;16.80;98.00;;;;;;5128826;27;19927;-74
2023/06/16 03:53:41;;;;;;;;;;;16.70;98.20;;;;;;5125879;27;19927;-74
2023/06/16 03:56:07;;;;;;;;;;;16.70;98.30;;;;;;5128470;27;20480;-74
2023/06/16 03:58:32;;;;;;;;;;;16.70;98.60;;;;;;5113892;27;20280;-74
2023/06/16 04:00:58;;;;;;;;;;;16.70;98.60;;;;;;5127451;27;19920;-74
2023/06/16 04:03:26;;;;;;;;;;;16.80;98.90;;;;;;5124905;27;19920;-74
2023/06/16 04:05:53;;;;;;;;;;;16.80;99.10;;;;;;5127659;27;19920;-75
2023/06/16 04:08:18;;;;;;;;;;;16.80;99.20;;;;;;5123578;27;20450;-74
2023/06/16 04:10:44;;;;;;;;;;;16.80;99.20;;;;;;5120909;27;20010;-74
2023/06/16 04:13:10;;;;;;;;;;;16.80;99.30;;;;;;5112388;27;19923;-74
2023/06/16 04:15:35;;;;;;;;;;;16.80;99.40;;;;;;5128810;27;20393;-74
2023/06/16 04:18:01;;;;;;;;;;;16.80;99.50;;;;;;5124170;27;19929;-74
2023/06/16 04:20:26;;;;;;;;;;;16.80;99.50;;;;;;5126935;27;19930;-74
2023/06/16 04:22:52;;;;;;;;;;;16.80;99.80;;;;;;5122347;27;19920;-74
2023/06/16 04:25:17;;;;;;;;;;;16.80;99.80;;;;;;5128277;27;19923;-74
2023/06/16 04:27:43;;;;;;;;;;;16.80;99.90;;;;;;5124223;27;19919;-74
2023/06/16 04:30:09;;;;;;;;;;;16.80;99.90;;;;;;5128312;27;19919;-74
2023/06/16 04:32:36;;;;;;;;;;;16.80;99.90;;;;;;5124275;27;20294;-74
2023/06/16 04:35:04;;;;;;;;;;;16.70;99.90;;;;;;5127535;27;20584;-74
2023/06/16 04:37:29;;;;;;;;;;;16.80;99.90;;;;;;5123863;27;19973;-74
2023/06/16 04:39:55;;;;;;;;;;;16.80;99.90;;;;;;5126668;27;19919;-74
2023/06/16 04:42:20;;;;;;;;;;;16.90;99.90;;;;;;5123147;27;20353;-74
2023/06/16 04:44:46;;;;;;;;;;;17.00;99.90;;;;;;5127558;27;19924;-74
2023/06/16 04:47:12;;;;;;;;;;;17.00;99.90;;;;;;5120156;27;20318;-74
2023/06/16 04:49:38;;;;;;;;;;;17.10;99.90;;;;;;5119152;27;20495;-75
2023/06/16 04:52:06;;;;;;;;;;;17.20;99.90;;;;;;5124815;27;19923;-75
2023/06/16 04:54:32;;;;;;;;;;;17.20;99.90;;;;;;5118368;27;19972;-74
2023/06/16 04:56:57;;;;;;;;;;;17.30;99.90;;;;;;5124430;27;19924;-74
2023/06/16 04:59:23;;;;;;;;;;;17.30;99.90;;;;;;5126960;27;19919;-74
2023/06/16 05:01:49;;;;;;;;;;;17.40;99.90;;;;;;5125708;27;20015;-75
2023/06/16 05:04:15;;;;;;;;;;;17.40;99.90;;;;;;5110337;27;19926;-75
2023/06/16 05:06:40;;;;;;;;;;;17.40;99.90;;;;;;5123653;27;19919;-74
2023/06/16 05:09:06;;;;;;;;;;;17.40;99.90;;;;;;5120445;27;19978;-74
2023/06/16 05:11:32;;;;;;;;;;;17.50;99.90;;;;;;5122703;27;19951;-74
2023/06/16 05:13:57;;;;;;;;;;;17.50;99.90;;;;;;5127212;27;19923;-74
2023/06/16 05:16:23;;;;;;;;;;;17.60;99.90;;;;;;5123206;27;19919;-74
2023/06/16 05:18:48;;;;;;;;;;;17.60;99.90;;;;;;5127425;27;20293;-74
2023/06/16 05:21:14;;;;;;;;;;;17.70;99.90;;;;;;5123773;27;19927;-75
2023/06/16 05:23:39;;;;;;;;;;;17.70;99.90;;;;;;5126621;27;19926;-75
2023/06/16 05:26:05;;;;;;;;;;;17.70;99.90;;;;;;5122866;27;19923;-74
2023/06/16 05:28:31;;;;;;;;;;;17.70;99.90;;;;;;5126459;27;19924;-75
2023/06/16 05:30:56;;;;;;;;;;;17.80;99.90;;;;;;5121931;27;19927;-74
2023/06/16 05:33:22;;;;;;;;;;;17.80;99.90;;;;;;5125242;27;19924;-74
2023/06/16 05:35:47;;;;;;;;;;;17.90;99.90;;;;;;5102542;28;20022;-74
2023/06/16 05:38:13;;;;;;;;;;;17.90;99.90;;;;;;5115028;27;19923;-74
2023/06/16 05:40:38;;;;;;;;;;;17.90;99.90;;;;;;5120606;27;20422;-74
2023/06/16 05:43:04;;;;;;;;;;;18.00;99.90;;;;;;5124733;27;20291;-72
2023/06/16 05:45:30;;;;;;;;;;;18.00;99.90;;;;;;5116814;27;20023;-74
2023/06/16 05:47:55;;;;;;;;;;;18.10;99.90;;;;;;5116150;27;19970;-73
2023/06/16 05:50:21;;;;;;;;;;;18.10;99.90;;;;;;5120485;27;20391;-74
2023/06/16 05:52:46;;;;;;;;;;;18.20;99.90;;;;;;5119623;27;19930;-75
2023/06/16 05:55:12;;;;;;;;;;;18.30;99.90;;;;;;5121792;27;19950;-75
2023/06/16 05:57:37;;;;;;;;;;;18.30;99.90;;;;;;5128542;27;19920;-75
2023/06/16 06:00:04;;;;;;;;;;;18.40;99.90;;;;;;5125416;27;19919;-76
2023/06/16 06:02:30;;;;;;;;;;;18.50;99.90;;;;;;5128286;27;19923;-76
2023/06/16 06:04:56;;;;;;;;;;;18.50;99.90;;;;;;5122818;27;19930;-75
2023/06/16 06:07:21;;;;;;;;;;;18.60;99.90;;;;;;5127543;27;20381;-75
2023/06/16 06:09:47;;;;;;;;;;;18.60;99.90;;;;;;5123577;27;20306;-75
2023/06/16 06:12:12;;;;;;;;;;;18.70;99.90;;;;;;5118631;27;20024;-76
2023/06/16 06:14:38;;;;;;;;;;;18.80;99.90;;;;;;5117649;27;20052;-75
2023/06/16 06:17:04;;;;;;;;;;;18.80;99.90;;;;;;5124172;27;19923;-76
2023/06/16 06:19:29;;;;;;;;;;;18.90;99.90;;;;;;5120766;27;21228;-75
2023/06/16 06:21:55;;;;;;;;;;;19.00;99.90;;;;;;5122499;27;19919;-75
2023/06/16 06:24:20;;;;;;;;;;;19.00;99.90;;;;;;5120737;27;19919;-76
2023/06/16 06:26:46;;;;;;;;;;;19.00;99.90;;;;;;5121895;27;19976;-76
2023/06/16 06:29:13;;;;;;;;;;;19.10;99.90;;;;;;5120620;27;20389;-75
2023/06/16 06:31:38;;;;;;;;;;;19.10;99.90;;;;;;5122437;27;19923;-76
2023/06/16 06:34:04;;;;;;;;;;;19.20;99.90;;;;;;5119239;27;19924;-76
2023/06/16 06:36:29;;;;;;;;;;;19.20;99.90;;;;;;5117698;27;19925;-75
2023/06/16 06:38:55;;;;;;;;;;;19.20;99.90;;;;;;5111645;27;19926;-75
2023/06/16 06:41:22;;;;;;;;;;;19.30;99.90;;;;;;5116702;27;19927;-76
2023/06/16 06:43:47;;;;;;;;;;;19.30;99.90;;;;;;5118127;27;19964;-76
2023/06/16 06:46:13;;;;;;;;;;;19.30;99.90;;;;;;5117070;27;19970;-76
2023/06/16 06:48:38;;;;;;;;;;;19.40;99.90;;;;;;5109063;27;19919;-75
2023/06/16 06:51:04;;;;;;;;;;;19.40;99.90;;;;;;5126187;28;19923;-76
2023/06/16 06:53:31;;;;;;;;;;;19.50;99.90;;;;;;5125963;27;19919;-76
2023/06/16 06:55:56;;;;;;;;;;;19.60;99.90;;;;;;5102091;28;19967;-76
2023/06/16 06:58:22;;;;;;;;;;;19.60;99.90;;;;;;5119102;28;19990;-76
2023/06/16 07:00:47;;;;;;;;;;;19.60;99.90;;;;;;5126181;28;19926;-76
2023/06/16 07:03:13;;;;;;;;;;;19.70;99.90;;;;;;5122266;28;20377;-76
2023/06/16 07:05:38;;;;;;;;;;;19.80;99.90;;;;;;5124566;28;19919;-76
2023/06/16 07:08:04;;;;;;;;;;;19.80;99.90;;;;;;5122836;27;19919;-76
2023/06/16 07:10:32;;;;;;;;;;;19.80;99.90;;;;;;5124265;27;20419;-76
2023/06/16 07:12:57;;;;;;;;;;;19.90;99.90;;;;;;5121992;27;19923;-75
2023/06/16 07:15:23;;;;;;;;;;;19.90;99.90;;;;;;5125478;28;20002;-76
2023/06/16 07:17:48;;;;;;;;;;;19.90;99.90;;;;;;5122517;28;20278;-76
2023/06/16 07:20:14;;;;;;;;;;;20.00;99.70;;;;;;5123967;28;19919;-75
2023/06/16 07:22:39;;;;;;;;;;;20.00;99.50;;;;;;5122918;27;20374;-76
2023/06/16 07:25:05;;;;;;;;;;;20.00;99.20;;;;;;5127781;27;19930;-76
2023/06/16 07:27:31;;;;;;;;;;;20.10;98.70;;;;;;5127010;27;19926;-76
2023/06/16 07:29:57;;;;;;;;;;;20.10;98.10;;;;;;5128625;27;19926;-75
2023/06/16 07:32:22;;;;;;;;;;;20.10;97.90;;;;;;5128274;27;19919;-75
2023/06/16 07:34:48;;;;;;;;;;;20.20;97.80;;;;;;5127915;27;20064;-76
2023/06/16 07:37:13;;;;;;;;;;;20.20;97.70;;;;;;5127329;27;19919;-76
2023/06/16 07:39:39;;;;;;;;;;;20.30;97.80;;;;;;5126652;27;20517;-75
2023/06/16 07:42:05;;;;;;;;;;;20.40;97.30;;;;;;5127774;27;20332;-75
2023/06/16 07:44:31;;;;;;;;;;;20.50;96.60;;;;;;5128186;27;20052;-75
2023/06/16 07:46:56;;;;;;;;;;;20.60;95.70;;;;;;5127291;27;19920;-76
2023/06/16 07:49:22;;;;;;;;;;;20.60;95.10;;;;;;5113202;28;19920;-76
2023/06/16 07:51:48;;;;;;;;;;;20.60;94.50;;;;;;5123563;27;19933;-75
2023/06/16 07:54:14;;;;;;;;;;;20.70;94.30;;;;;;5128391;27;19923;-76
2023/06/16 07:56:40;;;;;;;;;;;20.70;93.80;;;;;;5128264;27;19920;-76
2023/06/16 07:59:06;;;;;;;;;;;20.70;93.30;;;;;;5129212;27;19923;-76
2023/06/16 08:01:31;;;;;;;;;;;20.70;93.40;;;;;;5126568;27;19927;-75
2023/06/16 08:03:57;;;;;;;;;;;20.80;93.00;;;;;;5127130;27;19920;-76
2023/06/16 08:06:23;;;;;;;;;;;20.80;92.50;;;;;;5128094;27;19919;-75
2023/06/16 08:08:49;;;;;;;;;;;20.90;91.70;;;;;;5126926;27;19919;-76
2023/06/16 08:11:14;;;;;;;;;;;20.90;90.80;;;;;;5126417;27;20499;-75
2023/06/16 08:13:40;;;;;;;;;;;21.00;88.30;;;;;;5127178;27;20003;-76
2023/06/16 08:16:06;;;;;;;;;;;21.00;87.70;;;;;;5126482;27;19923;-76
2023/06/16 08:18:31;;;;;;;;;;;21.10;86.20;;;;;;5116507;27;20537;-76
2023/06/16 08:20:57;;;;;;;;;;;21.10;85.30;;;;;;5125758;27;20693;-76
2023/06/16 08:23:23;;;;;;;;;;;21.10;85.50;;;;;;5116185;27;20386;-76
2023/06/16 08:25:50;;;;;;;;;;;21.20;82.90;;;;;;5125339;27;19919;-76
2023/06/16 08:28:15;;;;;;;;;;;21.20;79.20;;;;;;5126012;27;20386;-76
2023/06/16 08:30:41;;;;;;;;;;;21.30;78.10;;;;;;5124511;27;19919;-76
2023/06/16 08:33:09;;;;;;;;;;;21.30;77.20;;;;;;5123580;27;19977;-76
2023/06/16 08:35:35;;;;;;;;;;;21.40;79.10;;;;;;5098638;28;20384;-75
2023/06/16 08:38:00;;;;;;;;;;;21.40;79.10;;;;;;5122663;27;20980;-76
2023/06/16 08:40:26;;;;;;;;;;;21.40;77.30;;;;;;5122396;27;19923;-76
2023/06/16 08:42:53;;;;;;;;;;;21.50;77.90;;;;;;5120010;27;19966;-76
2023/06/16 08:45:19;;;;;;;;;;;21.50;75.50;;;;;;5116109;27;20730;-76
2023/06/16 08:47:45;;;;;;;;;;;21.60;74.30;;;;;;5118779;27;19965;-76
2023/06/16 08:50:11;;;;;;;;;;;21.60;73.80;;;;;;5122988;27;19927;-76
2023/06/16 08:52:40;;;;;;;;;;;21.70;73.70;;;;;;5128828;27;19970;-76
2023/06/16 08:55:08;;;;;;;;;;;21.80;73.90;;;;;;5125795;27;19927;-76
2023/06/16 08:57:37;;;;;;;;;;;21.90;74.40;;;;;;5118946;27;20400;-76
2023/06/16 09:00:07;;;;;;;;;;;21.90;74.40;;;;;;5108317;27;20283;-76
2023/06/16 09:02:33;;;;;;;;;;;21.90;74.80;;;;;;5129854;27;19919;-75
2023/06/16 09:04:59;;;;;;;;;;;22.00;73.80;;;;;;5125757;27;19974;-75
2023/06/16 09:07:28;;;;;;;;;;;22.10;73.40;;;;;;5129031;27;19949;-75
2023/06/16 09:09:54;;;;;;;;;;;22.20;74.20;;;;;;5125415;27;19920;-75
2023/06/16 09:12:19;;;;;;;;;;;22.20;75.30;;;;;;5127707;27;19920;-75
2023/06/16 09:14:49;;;;;;;;;;;22.30;74.90;;;;;;5124388;27;19964;-76
2023/06/16 09:17:18;;;;;;;;;;;22.40;75.10;;;;;;5126637;27;20409;-75
2023/06/16 09:19:51;;;;;;;;;;;22.40;75.50;;;;;;5123713;27;19919;-75
2023/06/16 09:22:22;;;;;;;;;;;22.50;75.20;;;;;;5126437;27;19924;-75
2023/06/16 09:24:55;;;;;;;;;;;22.60;74.40;;;;;;5123511;27;19920;-75
2023/06/16 09:27:21;;;;;;;;;;;22.60;74.90;;;;;;5126643;27;19930;-75
2023/06/16 09:29:51;;;;;;;;;;;22.80;75.00;;;;;;5118947;27;19920;-75
2023/06/16 09:32:16;;;;;;;;;;;22.80;73.50;;;;;;5102038;27;19988;-75
2023/06/16 09:34:45;;;;;;;;;;;23.00;71.70;;;;;;5119900;27;20508;-76
2023/06/16 09:37:10;;;;;;;;;;;23.30;71.30;;;;;;5092017;28;20045;-76
2023/06/16 09:39:36;;;;;;;;;;;23.60;71.40;;;;;;5122653;27;20394;-76
2023/06/16 09:42:02;;;;;;;;;;;23.80;70.40;;;;;;5114583;27;20209;-76
2023/06/16 09:44:29;;;;;;;;;;;24.10;70.90;;;;;;5121705;27;19920;-76
2023/06/16 09:46:58;;;;;;;;;;;24.30;70.80;;;;;;5123405;27;19926;-76
2023/06/16 09:49:25;;;;;;;;;;;24.50;71.60;;;;;;5109989;28;19930;-76
2023/06/16 09:51:52;;;;;;;3.17;1.27;;;24.70;70.30;;;;;;5118402;27;19919;-76
2023/06/16 09:54:20;;;;;;;3.55;1.42;;;24.90;70.20;;;;;;5124485;27;20399;-76
2023/06/16 09:56:46;;;;;;;;;;;25.10;69.80;;;;;;5123859;27;20038;-76
2023/06/16 09:59:11;;;;;;;6.15;1.30;;;25.30;69.40;;;;;;5126180;27;19923;-76
2023/06/16 10:01:40;;;;;;;3.80;1.20;;;25.60;68.90;;;;;;5122264;27;20753;-76
2023/06/16 10:04:09;;;;;;;4.38;1.60;;;25.80;66.60;;;;;;5107948;28;20058;-76
2023/06/16 10:06:49;;;;;;;2.15;1.10;;;25.90;66.30;;;;;;5119048;27;20404;-76
2023/06/16 10:09:20;;;;;;;;;;;26.00;65.30;;;;;;5126629;27;20035;-76
2023/06/16 10:11:46;;;;;;;;;;;26.20;64.80;;;;;;5110312;27;20006;-76
2023/06/16 10:14:12;;;;;;;;;;;26.30;63.90;;;;;;5126126;27;19926;-76
2023/06/16 10:16:38;;;;;;;;;;;26.40;63.30;;;;;;5121881;27;19920;-76
2023/06/16 10:19:05;;;;;;;;;;;26.60;62.20;;;;;;5124714;27;20006;-76
2023/06/16 10:21:31;;;;;;;3.22;1.10;;;26.70;61.40;;;;;;5121330;27;19965;-76
2023/06/16 10:23:57;;;;;;;2.77;1.20;;;26.80;61.30;;;;;;5122406;27;20403;-76
2023/06/16 10:26:23;;;;;;;2.53;1.00;;;26.90;60.60;;;;;;5098532;28;20411;-76
2023/06/16 10:28:49;;;;;;;2.70;1.30;;;26.90;60.70;;;;;;5114318;27;20460;-76
2023/06/16 10:31:16;;;;;;;2.80;1.25;;;27.00;59.50;;;;;;5115803;27;20903;-76
2023/06/16 10:33:56;;;;;;;4.23;1.17;;;27.30;59.20;;;;;;5122177;27;20445;-76
2023/06/16 10:36:29;;;;;;;2.17;1.13;;;27.40;58.10;;;;;;5110952;27;20416;-76
2023/06/16 10:38:59;;;;;;;2.33;0.98;;;27.60;57.70;;;;;;5097303;28;20455;-76
2023/06/16 10:41:31;;;;;;;;;;;27.70;54.00;;;;;;5122815;27;20043;-76
2023/06/16 10:44:16;;;;;;;;;;;27.80;55.20;;;;;;5118362;27;19920;-76
2023/06/16 10:46:42;;;;;;;2.63;0.93;;;27.90;53.00;;;;;;5116096;27;19945;-76
2023/06/16 10:49:08;;;;;;;;;;;28.00;53.80;;;;;;5094470;28;20039;-76
2023/06/16 10:51:43;;;;;;;;;;;28.10;53.90;;;;;;5127104;27;19919;-76
2023/06/16 10:54:09;;;;;;;3.08;1.20;;;28.10;54.20;;;;;;5121268;27;19923;-76
2023/06/16 10:57:05;;;;;;;2.53;1.15;;;28.20;54.00;;;;;;5123141;27;20485;-76
2023/06/16 11:00:01;;;;;;;4.15;1.20;;;28.10;53.80;;;;;;5110043;27;20902;-76
2023/06/16 11:02:33;;;;;;;3.72;1.30;;;28.00;54.50;;;;;;5109905;27;20492;-76
2023/06/16 11:05:07;;;;;;;3.20;1.10;;;27.90;54.80;;;;;;5106892;27;20397;-76
2023/06/16 11:07:47;;;;;;;3.35;1.30;;;27.90;55.20;;;;;;5127402;27;20491;-76
2023/06/16 11:10:18;;;;;;;2.88;1.30;;;28.10;54.50;;;;;;5124866;27;20818;-76
2023/06/16 11:12:45;;;;;;;2.90;1.20;;;28.30;53.80;;;;;;5127450;27;20944;-76
2023/06/16 11:15:11;;;;;;;3.03;1.20;;;28.50;53.80;;;;;;5125581;27;20409;-76
2023/06/16 11:17:36;;;;;;;2.95;1.23;;;28.50;53.30;;;;;;5116873;27;20396;-76
2023/06/16 11:20:06;;;;;;;;;;;28.40;53.50;;;;;;5126093;27;20497;-76
2023/06/16 11:22:35;;;;;;;;;;;28.40;51.60;;;;;;5129823;27;19963;-76
2023/06/16 11:25:01;;;;;;;;;;;28.40;52.10;;;;;;5117561;27;20373;-76
2023/06/16 11:27:26;;;;;;;;;;;28.60;52.70;;;;;;5128084;27;19967;-76
2023/06/16 11:29:56;;;;;;;;;;;28.80;50.30;;;;;;5123876;27;20310;-76
2023/06/16 11:32:25;;;;;;;;;;;28.90;48.00;;;;;;5123074;27;19962;-76
2023/06/16 11:34:52;;;;;;;;;;;28.80;48.50;;;;;;5129135;27;19919;-76
2023/06/16 11:37:17;;;;;;;;;;;28.70;46.90;;;;;;5117148;27;19925;-76
2023/06/16 11:39:43;;;;;;;;;;;28.60;46.20;;;;;;5128856;27;19926;-76
2023/06/16 11:42:12;;;;;;;;;;;28.50;46.70;;;;;;5126528;27;19927;-76
2023/06/16 11:44:38;;;;;;;;;;;28.50;46.50;;;;;;5129234;27;20092;-76
2023/06/16 11:47:03;;;;;;;;;;;28.50;47.70;;;;;;5126087;27;20010;-76
2023/06/16 11:49:29;;;;;;;;;;;28.50;47.20;;;;;;5119182;27;20271;-76
2023/06/16 11:51:56;;;;;;;;;;;28.70;47.50;;;;;;5126133;27;19919;-76
2023/06/16 11:54:21;;;;;;;;;;;28.90;46.50;;;;;;5130136;27;19920;-76
2023/06/16 11:56:49;;;;;;;;;;;29.00;47.20;;;;;;5126192;27;19920;-76
2023/06/16 11:59:15;;;;;;;;;;;29.00;47.50;;;;;;5109385;27;20431;-76
2023/06/16 12:01:42;;;;;;;;;;;29.20;47.60;;;;;;5125214;27;20508;-76
2023/06/16 12:04:08;;;;;;;;;;;29.20;46.90;;;;;;5130018;27;19932;-76
2023/06/16 12:06:35;;;;;;;;;;;29.00;46.50;;;;;;5115035;27;19919;-76
2023/06/16 12:09:03;;;;;;;;;;;28.90;46.90;;;;;;5128469;27;19968;-76
2023/06/16 12:11:29;;;;;;;3.38;1.20;;;28.90;48.00;;;;;;5123457;27;19931;-76
2023/06/16 12:13:55;;;;;;;;;;;29.10;47.00;;;;;;5121785;27;20047;-76
2023/06/16 12:16:21;;;;;;;;;;;29.40;46.60;;;;;;5119620;27;19919;-76
2023/06/16 12:18:50;;;;;;;;;;;29.60;45.50;;;;;;5128504;27;20030;-76
2023/06/16 12:21:16;;;;;;;;;;;29.70;46.90;;;;;;5122610;27;19970;-76
2023/06/16 12:23:46;;;;;;;;;;;29.80;46.70;;;;;;5127823;27;19946;-76
2023/06/16 12:26:33;;;;;;;4.25;1.17;;;30.00;47.50;;;;;;5122785;27;19977;-76
2023/06/16 12:29:07;;;;;;;;;;;30.20;46.60;;;;;;5124091;27;20055;-76
2023/06/16 12:31:33;;;;;;;;;;;30.20;45.60;;;;;;5116149;27;19945;-76
2023/06/16 12:33:58;;;;;;;;;;;30.10;45.60;;;;;;5123162;27;19930;-76
2023/06/16 12:36:24;;;;;;;;;;;30.10;47.10;;;;;;5125117;27;19968;-76
2023/06/16 12:38:53;;;;;;;3.53;1.27;;;30.10;47.30;;;;;;5124257;27;19920;-76
2023/06/16 12:41:19;;;;;;;3.50;1.10;;;30.30;47.80;;;;;;5124857;27;20054;-76
2023/06/16 12:43:52;;;;;;;3.40;1.30;;;30.50;47.00;;;;;;5121421;27;20412;-76
2023/06/16 12:46:19;;;;;;;3.88;1.25;;;30.50;47.80;;;;;;5123182;27;20403;-76
2023/06/16 12:48:45;;;;;;;2.90;0.90;;;30.60;47.90;;;;;;5111754;27;20455;-76
2023/06/16 12:51:11;;;;;;;5.13;1.20;;;30.50;47.10;;;;;;5125266;27;20940;-76
2023/06/16 12:53:44;;;;;;;4.40;1.10;;;30.40;47.70;;;;;;5122795;27;21146;-76
2023/06/16 12:56:11;;;;;;;1.60;0.95;;;30.40;47.80;;;;;;5117838;27;20078;-76
2023/06/16 12:58:39;;;;;;;3.08;1.40;;;30.10;47.20;;;;;;5122313;27;20422;-76
2023/06/16 13:01:08;;;;;;;2.40;1.10;;;29.90;47.10;;;;;;5124290;27;20412;-76
2023/06/16 13:03:34;;;;;;;2.65;1.33;;;29.80;47.30;;;;;;5119643;27;20412;-76
2023/06/16 13:05:59;;;;;;;5.00;1.30;;;29.60;47.20;;;;;;5124315;27;20409;-76
2023/06/16 13:08:25;;;;;;;2.83;1.10;;;29.40;47.30;;;;;;5119106;27;20428;-76
2023/06/16 13:10:50;;;;;;;3.37;1.37;;;29.50;47.70;;;;;;5124211;27;20394;-76
2023/06/16 13:13:16;;;;;;;2.87;1.20;;;29.60;46.80;;;;;;5116622;27;20771;-76
2023/06/16 13:15:42;;;;;;;1.92;1.17;;;29.50;46.80;;;;;;5123583;27;20402;-75
2023/06/16 13:18:07;;;;;;;2.83;1.20;;;29.60;46.20;;;;;;5117028;27;21201;-76
2023/06/16 13:20:33;;;;;;;2.20;1.00;;;29.70;46.60;;;;;;5122202;27;20398;-75
2023/06/16 13:22:59;;;;;;;2.80;1.17;;;29.70;44.50;;;;;;5118506;27;20400;-76
2023/06/16 13:25:25;;;;;;;4.55;1.20;;;29.80;44.90;;;;;;5123602;27;21040;-76
2023/06/16 13:27:50;;;;;;;2.45;1.15;;;29.80;45.10;;;;;;5118188;27;20495;-76
2023/06/16 13:30:16;;;;;;;3.95;1.13;;;29.80;45.30;;;;;;5123467;27;20508;-76
2023/06/16 13:32:42;;;;;;;3.73;1.00;;;29.70;43.40;;;;;;5118195;27;20913;-76
2023/06/16 13:35:08;;;;;;;3.87;1.07;;;29.60;43.90;;;;;;5116364;27;20829;-76
2023/06/16 13:37:33;;;;;;;4.63;1.20;;;29.60;44.20;;;;;;5117396;27;20407;-76
2023/06/16 13:39:59;;;;;;;2.22;1.10;;;30.00;43.10;;;;;;5121274;27;20402;-76
2023/06/16 13:42:25;;;;;;;2.60;1.00;;;30.20;43.90;;;;;;5092300;28;20428;-76
2023/06/16 13:44:50;;;;;;;2.87;1.10;;;30.40;42.00;;;;;;5120968;27;20402;-76
2023/06/16 13:47:16;;;;;;;4.83;1.50;;;30.70;42.90;;;;;;5117777;27;20958;-76
2023/06/16 13:49:42;;;;;;;;;;;30.90;42.80;;;;;;5119462;27;20051;-76
2023/06/16 13:52:07;;;;;;;;;;;31.20;42.00;;;;;;5121764;27;20300;-76
2023/06/16 13:54:33;;;;;;;;;;;31.30;41.80;;;;;;5128093;27;19953;-76
2023/06/16 13:56:58;;;;;;;;;;;31.30;42.30;;;;;;5106661;27;19930;-76
2023/06/16 13:59:24;;;;;;;;;;;31.50;42.10;;;;;;5128186;27;19920;-76